createdAt,value
2023-02-16T00:00:45.705Z,51205.69
2023-02-16T00:03:20.480Z,51155.97
2023-02-16T00:05:49.525Z,51203.69
2023-02-16T00:08:17.157Z,51173.88
2023-02-16T00:11:05.017Z,51195.75
2023-02-16T00:13:44.852Z,51203.69
2023-02-16T00:16:24.596Z,51229.53
2023-02-16T00:18:52.354Z,51177.84
2023-02-16T00:21:20.570Z,51183.81
2023-02-16T00:23:48.554Z,51193.75
2023-02-16T00:26:25.752Z,51171.88
2023-02-16T00:28:59.133Z,51161.94
2023-02-16T00:31:33.161Z,51205.69
2023-02-16T00:34:22.755Z,51207.66
2023-02-16T00:36:49.951Z,51187.78
2023-02-16T00:39:17.142Z,51161.94
2023-02-16T00:41:50.492Z,51161.94
2023-02-16T00:44:29.845Z,51189.78
2023-02-16T00:46:57.317Z,51209.66
2023-02-16T00:49:24.420Z,51189.78
2023-02-16T00:51:51.903Z,51197.72
2023-02-16T00:54:21.848Z,51207.66
2023-02-16T00:56:49.041Z,51219.59
2023-02-16T00:59:21.143Z,51177.84
2023-02-16T01:01:49.263Z,51161.94
2023-02-16T01:04:23.389Z,51177.84
2023-02-16T01:07:09.177Z,51191.78
2023-02-16T01:09:55.134Z,51201.72
2023-02-16T01:12:22.850Z,51215.63
2023-02-16T01:14:54.714Z,51177.84
2023-02-16T01:17:24.029Z,51169.91
2023-02-16T01:19:54.099Z,51165.91
2023-02-16T01:22:21.238Z,51209.66
2023-02-16T01:24:48.311Z,51169.91
2023-02-16T01:27:15.485Z,51173.88
2023-02-16T01:29:45.547Z,51177.84
2023-02-16T01:32:13.250Z,51181.81
2023-02-16T01:34:40.503Z,51152.00
2023-02-16T01:37:15.728Z,51189.78
2023-02-16T01:39:44.658Z,51189.78
2023-02-16T01:42:24.205Z,51177.84
2023-02-16T01:45:18.425Z,51205.69
2023-02-16T01:47:54.093Z,51189.78
2023-02-16T01:50:25.760Z,51217.59
2023-02-16T01:52:58.551Z,51165.91
2023-02-16T01:55:29.896Z,51177.84
2023-02-16T01:58:24.335Z,51161.94
2023-02-16T02:00:55.105Z,51191.78
2023-02-16T02:03:45.854Z,51199.72
2023-02-16T02:06:20.652Z,51201.72
2023-02-16T02:09:05.260Z,51175.88
2023-02-16T02:11:52.470Z,51159.97
2023-02-16T02:14:32.316Z,51163.94
2023-02-16T02:17:05.973Z,51195.75
2023-02-16T02:19:53.909Z,51203.69
2023-02-16T02:23:10.345Z,51201.72
2023-02-16T02:26:12.930Z,51189.78
2023-02-16T02:29:07.514Z,51189.78
2023-02-16T02:31:54.143Z,51179.84
2023-02-16T02:34:30.695Z,51171.88
2023-02-16T02:37:25.342Z,51187.78
2023-02-16T02:40:01.511Z,51159.97
2023-02-16T02:42:47.512Z,51179.84
2023-02-16T02:45:42.671Z,51189.78
2023-02-16T02:48:10.284Z,51205.69
2023-02-16T02:50:37.420Z,51155.97
2023-02-16T02:53:16.060Z,51161.94
2023-02-16T02:56:07.316Z,51191.78
2023-02-16T02:59:12.638Z,51179.84
2023-02-16T03:01:44.085Z,51169.91
2023-02-16T03:04:13.848Z,51197.72
2023-02-16T03:06:49.244Z,51201.72
2023-02-16T03:09:17.344Z,51197.72
2023-02-16T03:12:05.246Z,51169.91
2023-02-16T03:14:46.870Z,51157.97
2023-02-16T03:17:36.732Z,51179.84
2023-02-16T03:20:27.809Z,51173.88
2023-02-16T03:23:15.134Z,51175.88
2023-02-16T03:26:02.064Z,51163.94
2023-02-16T03:28:50.045Z,51193.75
2023-02-16T03:31:28.755Z,51195.75
2023-02-16T03:33:56.498Z,51177.84
2023-02-16T03:36:30.238Z,51167.91
2023-02-16T03:38:58.571Z,51157.97
2023-02-16T03:41:27.360Z,51215.63
2023-02-16T03:43:54.573Z,51189.78
2023-02-16T03:46:22.237Z,51161.94
2023-02-16T03:48:49.377Z,51191.78
2023-02-16T03:51:16.980Z,51195.75
2023-02-16T03:53:44.145Z,51171.88
2023-02-16T03:56:11.293Z,51191.78
2023-02-16T03:58:38.611Z,51161.94
2023-02-16T04:01:06.041Z,51193.75
2023-02-16T04:03:34.249Z,51161.94
2023-02-16T04:06:01.764Z,51193.75
2023-02-16T04:08:29.099Z,51171.88
2023-02-16T04:10:57.703Z,51175.88
2023-02-16T04:13:24.950Z,51175.88
2023-02-16T04:15:52.477Z,51161.94
2023-02-16T04:18:19.645Z,51189.78
2023-02-16T04:20:46.699Z,51199.72
2023-02-16T04:23:13.866Z,51189.78
2023-02-16T04:25:40.914Z,51177.84
2023-02-16T04:28:07.934Z,51193.75
2023-02-16T04:30:35.243Z,51183.81
2023-02-16T04:33:02.318Z,51157.97
2023-02-16T04:35:29.562Z,51193.75
2023-02-16T04:37:57.144Z,51193.75
2023-02-16T04:40:24.413Z,51169.91
2023-02-16T04:42:51.755Z,51150.03
2023-02-16T04:45:19.034Z,51165.91
2023-02-16T04:47:46.366Z,51185.81
2023-02-16T04:50:13.634Z,51144.06
2023-02-16T04:52:41.550Z,51171.88
2023-02-16T04:55:10.952Z,51154.00
2023-02-16T04:57:39.590Z,51171.88
2023-02-16T05:00:09.388Z,51189.78
2023-02-16T05:02:36.521Z,51175.88
2023-02-16T05:05:03.895Z,51185.81
2023-02-16T05:07:31.160Z,51161.94
2023-02-16T05:09:58.273Z,51189.78
2023-02-16T05:12:43.780Z,51191.78
2023-02-16T05:15:11.021Z,51191.78
2023-02-16T05:17:38.342Z,51171.88
2023-02-16T05:20:06.551Z,51201.72
2023-02-16T05:22:34.545Z,51165.91
2023-02-16T05:25:02.446Z,51189.78
2023-02-16T05:27:31.389Z,51173.88
2023-02-16T05:29:59.411Z,51189.78
2023-02-16T05:32:26.887Z,51167.91
2023-02-16T05:34:54.208Z,51154.00
2023-02-16T05:37:21.569Z,51144.06
2023-02-16T05:39:48.928Z,51191.78
2023-02-16T05:42:16.025Z,51191.78
2023-02-16T05:44:43.312Z,51169.91
2023-02-16T05:47:11.300Z,51163.94
2023-02-16T05:49:38.564Z,51189.78
2023-02-16T05:52:05.918Z,51159.97
2023-02-16T05:54:33.125Z,51171.88
2023-02-16T05:57:02.284Z,51144.06
2023-02-16T05:59:29.571Z,51193.75
2023-02-16T06:01:56.739Z,51189.78
2023-02-16T06:04:24.221Z,51193.75
2023-02-16T06:06:51.399Z,51165.91
2023-02-16T06:09:18.617Z,51211.66
2023-02-16T06:11:46.069Z,51183.81
2023-02-16T06:14:20.095Z,51155.97
2023-02-16T06:16:50.084Z,51148.03
2023-02-16T06:19:18.977Z,51173.88
2023-02-16T06:21:47.045Z,51165.91
2023-02-16T06:24:15.309Z,51167.91
2023-02-16T06:26:42.520Z,51165.91
2023-02-16T06:29:10.526Z,51154.00
2023-02-16T06:31:37.802Z,51211.66
2023-02-16T06:34:05.334Z,51165.91
2023-02-16T06:36:34.295Z,51179.84
2023-02-16T06:39:01.426Z,51179.84
2023-02-16T06:41:40.966Z,51177.84
2023-02-16T06:44:14.784Z,51181.81
2023-02-16T06:46:44.275Z,51175.88
2023-02-16T06:49:18.125Z,51171.88
2023-02-16T06:51:46.293Z,51171.88
2023-02-16T06:54:13.983Z,51155.97
2023-02-16T06:56:41.232Z,51205.69
2023-02-16T06:59:08.730Z,51171.88
2023-02-16T07:01:35.798Z,51181.81
2023-02-16T07:04:03.255Z,51161.94
2023-02-16T07:06:31.100Z,51163.94
2023-02-16T07:08:59.586Z,51197.72
2023-02-16T07:11:26.855Z,51169.91
2023-02-16T07:13:53.961Z,51165.91
2023-02-16T07:16:21.447Z,51167.91
2023-02-16T07:18:48.560Z,51209.66
2023-02-16T07:21:16.166Z,51169.91
2023-02-16T07:23:43.566Z,51191.78
2023-02-16T07:26:10.962Z,51195.75
2023-02-16T07:28:38.135Z,51189.78
2023-02-16T07:31:11.435Z,51187.78
2023-02-16T07:33:39.094Z,51191.78
2023-02-16T07:36:08.656Z,51175.88
2023-02-16T07:38:36.160Z,51181.81
2023-02-16T07:41:07.031Z,51177.84
2023-02-16T07:43:36.003Z,51175.88
2023-02-16T07:46:03.294Z,51193.75
2023-02-16T07:48:30.535Z,51161.94
2023-02-16T07:50:58.387Z,51165.91
2023-02-16T07:53:25.631Z,51195.75
2023-02-16T07:55:52.815Z,51189.78
2023-02-16T07:58:29.038Z,51171.88
2023-02-16T08:01:14.765Z,51155.97
2023-02-16T08:03:43.380Z,51173.88
2023-02-16T08:06:11.509Z,51203.69
2023-02-16T08:08:39.368Z,51205.69
2023-02-16T08:11:25.124Z,51185.81
2023-02-16T08:13:53.397Z,51205.69
2023-02-16T08:16:25.002Z,51161.94
2023-02-16T08:18:53.046Z,51203.69
2023-02-16T08:21:23.773Z,51195.75
2023-02-16T08:24:06.555Z,51201.72
2023-02-16T08:26:40.191Z,51187.78
2023-02-16T08:29:13.349Z,51217.59
2023-02-16T08:31:41.762Z,51177.84
2023-02-16T08:34:10.148Z,51181.81
2023-02-16T08:36:38.701Z,51207.66
2023-02-16T08:39:12.422Z,51201.72
2023-02-16T08:41:39.883Z,51185.81
2023-02-16T08:44:08.463Z,51235.50
2023-02-16T08:46:39.220Z,51175.88
2023-02-16T08:49:08.412Z,51205.69
2023-02-16T08:51:38.637Z,51209.66
2023-02-16T08:54:11.992Z,51221.59
2023-02-16T08:56:39.649Z,51187.78
2023-02-16T08:59:06.732Z,51187.78
2023-02-16T09:01:33.939Z,51213.63
2023-02-16T09:04:01.196Z,51203.69
2023-02-16T09:06:28.266Z,51229.53
2023-02-16T09:08:57.152Z,51221.59
2023-02-16T09:11:25.632Z,51221.59
2023-02-16T09:13:53.233Z,51227.56
2023-02-16T09:16:23.753Z,51243.47
2023-02-16T09:18:52.165Z,51209.66
2023-02-16T09:21:25.469Z,51235.50
2023-02-16T09:23:55.825Z,51229.53
2023-02-16T09:26:25.462Z,51219.59
2023-02-16T09:28:53.706Z,51201.72
2023-02-16T09:31:29.004Z,51243.47
2023-02-16T09:34:06.360Z,51267.31
2023-02-16T09:36:34.401Z,51249.41
2023-02-16T09:39:02.326Z,51217.59
2023-02-16T09:41:41.352Z,51233.50
2023-02-16T09:44:29.522Z,51233.50
2023-02-16T09:47:00.412Z,51251.41
2023-02-16T09:49:42.465Z,51215.63
2023-02-16T09:52:40.338Z,51261.34
2023-02-16T09:55:18.057Z,51239.47
2023-02-16T09:57:55.664Z,51233.50
2023-02-16T10:00:35.926Z,51219.59
2023-02-16T10:03:21.319Z,51219.59
2023-02-16T10:06:24.732Z,51219.59
2023-02-16T10:08:58.626Z,51205.69
2023-02-16T10:11:48.838Z,51225.56
2023-02-16T10:14:24.732Z,51221.59
2023-02-16T10:17:06.743Z,51233.50
2023-02-16T10:19:54.772Z,51217.59
2023-02-16T10:22:36.105Z,51219.59
2023-02-16T10:25:24.233Z,51241.47
2023-02-16T10:28:18.210Z,51219.59
2023-02-16T10:31:21.811Z,51237.50
2023-02-16T10:34:03.961Z,51249.41
2023-02-16T10:37:11.669Z,51219.59
2023-02-16T10:39:59.595Z,51223.56
2023-02-16T10:42:50.259Z,51249.41
2023-02-16T10:45:35.883Z,51235.50
2023-02-16T10:48:03.116Z,51257.38
2023-02-16T10:50:38.894Z,51259.34
2023-02-16T10:53:17.401Z,51253.41
2023-02-16T10:55:44.937Z,51259.34
2023-02-16T10:58:29.314Z,51241.47
2023-02-16T11:01:14.897Z,51235.50
2023-02-16T11:03:55.509Z,51251.41
2023-02-16T11:06:29.118Z,51253.41
2023-02-16T11:09:01.232Z,51241.47
2023-02-16T11:11:39.942Z,51243.47
2023-02-16T11:14:25.344Z,51231.53
2023-02-16T11:17:12.719Z,51251.41
2023-02-16T11:20:02.419Z,51241.47
2023-02-16T11:22:37.523Z,51279.25
2023-02-16T11:25:23.930Z,51245.44
2023-02-16T11:28:05.621Z,51277.25
2023-02-16T11:30:40.364Z,51291.16
2023-02-16T11:33:26.985Z,51321.00
2023-02-16T11:35:55.241Z,51334.91
2023-02-16T11:38:37.054Z,51356.78
2023-02-16T11:41:07.329Z,51338.88
2023-02-16T11:43:42.446Z,51364.72
2023-02-16T11:46:20.774Z,51386.72
2023-02-16T11:48:48.656Z,51388.59
2023-02-16T11:51:30.438Z,51468.09
2023-02-16T11:54:05.777Z,51489.97
2023-02-16T11:56:36.538Z,51452.19
2023-02-16T11:59:20.773Z,51499.91
2023-02-16T12:02:00.574Z,51527.75
2023-02-16T12:05:08.390Z,51517.81
2023-02-16T12:08:32.393Z,51527.75
2023-02-16T12:11:14.981Z,51525.88
2023-02-16T12:14:08.276Z,51527.75
2023-02-16T12:17:05.338Z,51187.91
2023-02-16T12:19:49.793Z,51527.75
2023-02-16T12:22:29.121Z,51187.91
2023-02-16T12:25:19.846Z,51541.66
2023-02-16T12:28:00.729Z,51187.91
2023-02-16T12:31:11.576Z,51541.66
2023-02-16T12:33:53.991Z,51187.91
2023-02-16T12:36:52.320Z,51187.91
2023-02-16T12:39:56.278Z,51187.91
2023-02-16T12:43:09.787Z,51559.56
2023-02-16T12:45:43.424Z,51559.56
2023-02-16T12:48:37.370Z,51497.94
2023-02-16T12:51:16.363Z,51517.94
2023-02-16T12:53:53.979Z,51545.66
2023-02-16T12:57:04.718Z,51187.91
2023-02-16T13:00:18.828Z,51468.09
2023-02-16T13:02:58.217Z,51503.91
2023-02-16T13:05:36.176Z,51503.91
2023-02-16T13:08:18.227Z,51503.91
2023-02-16T13:10:58.254Z,51529.75
2023-02-16T13:13:33.799Z,51529.75
2023-02-16T13:16:24.129Z,51529.75
2023-02-16T13:18:57.199Z,51529.75
2023-02-16T13:21:51.174Z,51495.94
2023-02-16T13:24:51.019Z,51187.91
2023-02-16T13:27:37.092Z,51531.72
2023-02-16T13:31:15.652Z,51187.91
2023-02-16T13:34:02.370Z,51531.72
2023-02-16T13:37:05.093Z,51187.91
2023-02-16T13:39:38.756Z,51545.66
2023-02-16T13:42:36.750Z,51545.66
2023-02-16T13:45:21.229Z,51579.56
2023-02-16T13:47:49.583Z,51187.91
2023-02-16T13:50:23.244Z,51531.72
2023-02-16T13:52:53.622Z,51187.91
2023-02-16T13:55:38.841Z,51537.69
2023-02-16T13:58:12.125Z,51521.91
2023-02-16T14:00:49.998Z,51523.78
2023-02-16T14:03:22.807Z,51521.91
2023-02-16T14:05:56.457Z,51187.91
2023-02-16T14:08:31.787Z,51635.13
2023-02-16T14:11:01.792Z,51187.91
2023-02-16T14:13:48.389Z,51629.16
2023-02-16T14:16:18.933Z,51187.91
2023-02-16T14:19:19.230Z,51657.09
2023-02-16T14:21:49.333Z,51658.97
2023-02-16T14:24:44.635Z,51643.19
2023-02-16T14:27:13.341Z,51670.91
2023-02-16T14:29:59.627Z,51187.91
2023-02-16T14:32:38.608Z,51670.91
2023-02-16T14:35:20.081Z,51670.91
2023-02-16T14:37:59.298Z,51565.53
2023-02-16T14:40:35.740Z,51187.91
2023-02-16T14:43:24.678Z,51629.16
2023-02-16T14:46:29.760Z,51629.16
2023-02-16T14:49:19.372Z,51629.16
2023-02-16T14:52:16.878Z,51561.56
2023-02-16T14:55:27.348Z,51549.63
2023-02-16T14:58:13.575Z,51549.63
2023-02-16T15:00:55.991Z,51549.63
2023-02-16T15:03:26.334Z,51601.31
2023-02-16T15:06:06.268Z,51601.31
2023-02-16T15:08:40.193Z,51187.91
2023-02-16T15:11:33.057Z,51482.03
2023-02-16T15:14:09.621Z,51482.03
2023-02-16T15:16:40.671Z,51482.03
2023-02-16T15:19:15.944Z,51482.03
2023-02-16T15:21:44.012Z,51406.47
2023-02-16T15:24:23.920Z,51382.63
2023-02-16T15:26:57.967Z,51392.56
2023-02-16T15:29:29.362Z,51390.56
2023-02-16T15:31:59.996Z,51408.47
2023-02-16T15:34:46.310Z,51356.78
2023-02-16T15:37:30.085Z,51386.59
2023-02-16T15:40:25.340Z,51372.69
2023-02-16T15:42:56.880Z,51352.78
2023-02-16T15:45:38.314Z,51332.91
2023-02-16T15:48:29.456Z,51324.97
2023-02-16T15:51:15.636Z,51328.94
2023-02-16T15:54:28.404Z,51315.03
2023-02-16T15:57:11.445Z,51307.06
2023-02-16T15:59:47.594Z,51328.94
2023-02-16T16:02:19.754Z,51326.94
2023-02-16T16:05:01.114Z,51319.00
2023-02-16T16:07:35.871Z,51305.09
2023-02-16T16:10:15.579Z,51324.97
2023-02-16T16:12:44.366Z,51326.94
2023-02-16T16:15:23.730Z,51324.97
2023-02-16T16:17:53.693Z,51307.06
2023-02-16T16:20:42.145Z,51321.00
2023-02-16T16:23:15.328Z,51336.91
2023-02-16T16:25:46.078Z,51289.19
2023-02-16T16:28:32.361Z,51287.19
2023-02-16T16:31:17.493Z,51293.16
2023-02-16T16:34:07.505Z,51307.06
2023-02-16T16:36:54.174Z,51291.16
2023-02-16T16:39:29.407Z,51277.25
2023-02-16T16:42:20.635Z,51291.16
2023-02-16T16:45:00.322Z,51299.13
2023-02-16T16:47:40.491Z,51299.13
2023-02-16T16:50:10.860Z,51285.19
2023-02-16T16:52:43.979Z,51291.16
2023-02-16T16:55:34.074Z,51287.19
2023-02-16T16:58:08.388Z,51281.22
2023-02-16T17:00:39.113Z,51269.31
2023-02-16T17:03:08.725Z,51273.28
2023-02-16T17:05:38.462Z,51277.25
2023-02-16T17:08:06.324Z,51293.16
2023-02-16T17:10:35.670Z,51267.31
2023-02-16T17:13:03.194Z,51287.19
2023-02-16T17:15:45.137Z,51279.25
2023-02-16T17:18:17.017Z,51253.41
2023-02-16T17:20:45.207Z,51281.22
2023-02-16T17:23:15.291Z,51275.25
2023-02-16T17:25:43.429Z,51259.34
2023-02-16T17:28:12.855Z,51293.16
2023-02-16T17:30:41.092Z,51285.19
2023-02-16T17:33:09.798Z,51269.31
2023-02-16T17:35:39.470Z,51257.38
2023-02-16T17:38:09.023Z,51281.22
2023-02-16T17:40:36.259Z,51277.25
2023-02-16T17:43:10.526Z,51255.38
2023-02-16T17:45:37.976Z,51281.22
2023-02-16T17:48:05.093Z,51249.41
2023-02-16T17:50:33.068Z,51267.31
2023-02-16T17:53:00.458Z,51259.34
2023-02-16T17:55:27.906Z,51259.34
2023-02-16T17:57:56.903Z,51267.31
2023-02-16T18:00:24.177Z,51265.31
2023-02-16T18:02:51.471Z,51269.31
2023-02-16T18:05:18.816Z,51235.50
2023-02-16T18:07:46.057Z,51249.41
2023-02-16T18:10:33.091Z,51265.31
2023-02-16T18:13:00.474Z,51281.22
2023-02-16T18:15:27.884Z,51267.31
2023-02-16T18:17:55.565Z,51267.31
2023-02-16T18:20:23.301Z,51253.41
2023-02-16T18:22:50.785Z,51273.28
2023-02-16T18:27:45.927Z,51273.28
2023-02-16T18:30:14.928Z,51251.41
2023-02-16T18:32:42.747Z,51277.25
2023-02-16T18:35:10.862Z,51273.28
2023-02-16T18:37:38.693Z,51283.22
2023-02-16T18:40:08.625Z,51239.47
2023-02-16T18:42:37.001Z,51275.25
2023-02-16T18:45:06.249Z,51291.16
2023-02-16T18:47:33.365Z,51253.41
2023-02-16T18:50:00.519Z,51275.25
2023-02-16T18:52:27.702Z,51251.41
2023-02-16T18:54:54.798Z,51255.38
2023-02-16T18:57:22.807Z,51247.44
2023-02-16T18:59:50.176Z,51247.44
2023-02-16T19:02:17.513Z,51239.47
2023-02-16T19:04:44.650Z,51239.47
2023-02-16T19:07:11.809Z,51253.41
2023-02-16T19:09:39.147Z,51261.34
2023-02-16T19:12:06.284Z,51259.34
2023-02-16T19:14:33.494Z,51239.47
2023-02-16T19:17:00.569Z,51237.50
2023-02-16T19:19:30.023Z,51235.50
2023-02-16T19:21:57.601Z,51251.41
2023-02-16T19:24:25.912Z,51253.41
2023-02-16T19:26:53.098Z,51275.25
2023-02-16T19:29:20.579Z,51261.34
2023-02-16T19:31:48.053Z,51261.34
2023-02-16T19:34:15.514Z,51271.28
2023-02-16T19:36:42.602Z,51279.25
2023-02-16T19:39:12.064Z,51241.47
2023-02-16T19:41:43.700Z,51243.47
2023-02-16T19:44:14.016Z,51241.47
2023-02-16T19:46:42.382Z,51299.13
2023-02-16T19:49:15.758Z,51255.38
2023-02-16T19:51:44.003Z,51259.34
2023-02-16T19:54:11.085Z,51253.41
2023-02-16T19:56:40.606Z,51249.41
2023-02-16T19:59:08.664Z,51247.44
2023-02-16T20:01:36.060Z,51241.47
2023-02-16T20:04:03.850Z,51221.59
2023-02-16T20:06:34.469Z,51239.47
2023-02-16T20:09:02.101Z,51261.34
2023-02-16T20:11:32.406Z,51265.31
2023-02-16T20:14:01.527Z,51263.34
2023-02-16T20:16:30.172Z,51285.19
2023-02-16T20:18:59.121Z,51287.19
2023-02-16T20:21:29.295Z,51257.38
2023-02-16T20:24:03.944Z,51281.22
2023-02-16T20:26:39.045Z,51271.28
2023-02-16T20:29:08.754Z,51267.31
2023-02-16T20:31:56.883Z,51273.28
2023-02-16T20:34:27.386Z,51271.28
2023-02-16T20:36:55.133Z,51277.25
2023-02-16T20:39:23.077Z,51259.34
2023-02-16T20:41:50.391Z,51279.25
2023-02-16T20:44:17.623Z,51305.09
2023-02-16T20:46:45.345Z,51271.28
2023-02-16T20:49:13.578Z,51277.25
2023-02-16T20:51:41.476Z,51267.31
2023-02-16T20:54:08.958Z,51279.25
2023-02-16T20:56:36.308Z,51277.25
2023-02-16T20:59:03.880Z,51287.19
2023-02-16T21:01:38.644Z,51257.38
2023-02-16T21:04:08.216Z,51243.47
2023-02-16T21:06:37.502Z,51283.22
2023-02-16T21:09:07.276Z,51281.22
2023-02-16T21:11:35.085Z,51281.22
2023-02-16T21:14:03.138Z,51271.28
2023-02-16T21:16:31.993Z,51275.25
2023-02-16T21:18:59.245Z,51253.41
2023-02-16T21:21:26.674Z,51265.31
2023-02-16T21:23:54.752Z,51275.25
2023-02-16T21:26:24.779Z,51277.25
2023-02-16T21:28:52.811Z,51273.28
2023-02-16T21:31:24.082Z,51283.22
2023-02-16T21:33:52.440Z,51261.34
2023-02-16T21:36:24.005Z,51283.22
2023-02-16T21:38:52.841Z,51277.25
2023-02-16T21:41:25.451Z,51259.34
2023-02-16T21:44:01.006Z,51295.16
2023-02-16T21:46:33.386Z,51287.19
2023-02-16T21:49:01.369Z,51299.13
2023-02-16T21:51:38.013Z,51271.28
2023-02-16T21:54:15.376Z,51295.16
2023-02-16T21:56:53.175Z,51281.22
2023-02-16T21:59:22.731Z,51257.38
2023-02-16T22:01:51.844Z,51285.19
2023-02-16T22:04:22.475Z,51297.13
2023-02-16T22:06:51.332Z,51297.13
2023-02-16T22:09:21.813Z,51295.16
2023-02-16T22:11:49.737Z,51279.25
2023-02-16T22:14:17.670Z,51324.97
2023-02-16T22:16:47.487Z,51297.13
2023-02-16T22:19:18.029Z,51285.19
2023-02-16T22:21:47.841Z,51257.38
2023-02-16T22:24:17.706Z,51285.19
2023-02-16T22:26:49.865Z,51281.22
2023-02-16T22:29:18.514Z,51289.19
2023-02-16T22:31:47.756Z,51271.28
2023-02-16T22:34:19.609Z,51279.25
2023-02-16T22:36:47.446Z,51281.22
2023-02-16T22:39:19.072Z,51291.16
2023-02-16T22:41:46.450Z,51269.31
2023-02-16T22:44:15.679Z,51281.22
2023-02-16T22:46:43.454Z,51291.16
2023-02-16T22:49:10.950Z,51285.19
2023-02-16T22:51:38.294Z,51321.00
2023-02-16T22:54:05.714Z,51273.28
2023-02-16T22:56:34.307Z,51328.94
2023-02-16T22:59:01.504Z,51271.28
2023-02-16T23:01:31.539Z,51317.00
2023-02-16T23:04:01.055Z,51317.00
2023-02-16T23:06:32.127Z,51279.25
2023-02-16T23:09:05.157Z,51275.25
2023-02-16T23:11:33.381Z,51289.19
2023-02-16T23:14:00.802Z,51301.09
2023-02-16T23:16:28.537Z,51275.25
2023-02-16T23:18:58.947Z,51307.06
2023-02-16T23:21:30.086Z,51257.38
2023-02-16T23:23:58.232Z,51267.31
2023-02-16T23:26:30.273Z,51283.22
2023-02-16T23:29:01.413Z,51297.13
2023-02-16T23:31:35.796Z,51283.22
2023-02-16T23:34:05.525Z,51289.19
2023-02-16T23:36:35.095Z,51305.09
2023-02-16T23:39:10.261Z,51297.13
2023-02-16T23:41:37.945Z,51277.25
2023-02-16T23:44:06.184Z,51291.16
2023-02-16T23:46:33.968Z,51261.34
2023-02-16T23:49:01.325Z,51293.16
2023-02-16T23:51:28.699Z,51287.19
2023-02-16T23:53:56.453Z,51289.19
2023-02-16T23:56:28.333Z,51301.09
2023-02-16T23:59:00.627Z,51291.16
